Time;durP1;ratioP1;P1;durP2;ratioP2;P2;SDS_P1;SDS_P2;PMS_P1;PMS_P2;Temp;Humidity;BMP_temperature;BMP_pressure;BME280_temperature;BME280_humidity;BME280_pressure;Samples;Min_cycle;Max_cycle;Signal;HPM_P1;HPM_P2
2021/08/16 00:02:02;;;;;;;0.75;0.65;;;;;;;15.60;100.00;100048.69;5051842;28;20057;-87
2021/08/16 00:04:30;;;;;;;0.77;0.63;;;;;;;15.57;100.00;100043.84;5053268;28;20044;-87
2021/08/16 00:07:05;;;;;;;1.05;0.75;;;;;;;15.64;100.00;100053.16;5050409;28;20041;-86
2021/08/16 00:09:33;;;;;;;2.88;0.77;;;;;;;15.51;100.00;100036.94;5039837;28;20065;-87
2021/08/16 00:12:08;;;;;;;1.17;0.70;;;;;;;15.65;100.00;100059.47;5038084;28;20421;-86
2021/08/16 00:14:42;;;;;;;0.95;0.55;;;;;;;15.60;100.00;100043.19;5051727;28;20534;-86
2021/08/16 00:17:11;;;;;;;1.05;0.70;;;;;;;15.57;100.00;100032.88;5051657;28;20057;-86
2021/08/16 00:19:40;;;;;;;1.00;0.70;;;;;;;15.73;100.00;100058.63;5052066;28;20048;-86
2021/08/16 00:22:08;;;;;;;0.80;0.80;;;;;;;15.50;100.00;100052.59;5052904;28;20492;-86
2021/08/16 00:24:49;;;;;;;1.38;0.80;;;;;;;15.64;100.00;100060.59;5048748;28;20041;-87
2021/08/16 00:27:24;;;;;;;1.67;0.90;;;;;;;15.55;100.00;100038.69;5051901;28;20056;-86
2021/08/16 00:29:52;;;;;;;1.15;0.75;;;;;;;15.59;100.00;100047.06;5051380;28;20049;-87
2021/08/16 00:32:20;;;;;;;1.05;0.70;;;;;;;15.61;100.00;100039.31;5047632;28;20048;-86
2021/08/16 00:34:57;;;;;;;0.85;0.80;;;;;;;15.73;100.00;100022.16;5051598;28;20049;-87
2021/08/16 00:37:30;;;;;;;0.77;0.77;;;;;;;15.83;100.00;100026.50;5051281;28;20508;-87
2021/08/16 00:40:04;;;;;;;0.70;0.70;;;;;;;15.50;100.00;99997.75;5051122;28;20041;-87
2021/08/16 00:42:34;;;;;;;0.70;0.70;;;;;;;15.61;100.00;100014.63;5047284;28;20413;-86
2021/08/16 00:45:03;;;;;;;0.95;0.70;;;;;;;15.62;100.00;100017.06;5048311;28;20050;-86
2021/08/16 00:47:38;;;;;;;1.50;0.88;;;;;;;15.61;100.00;100025.59;5046653;28;20053;-87
2021/08/16 00:50:14;;;;;;;0.98;0.68;;;;;;;15.50;100.00;100010.66;5052614;28;20383;-86
2021/08/16 00:52:47;;;;;;;2.17;0.88;;;;;;;15.56;100.00;100032.06;5037204;28;20379;-86
2021/08/16 00:55:21;;;;;;;1.70;1.00;;;;;;;15.50;100.00;100025.16;5053156;28;20052;-86
2021/08/16 00:57:57;;;;;;;1.15;0.70;;;;;;;15.54;100.00;100033.56;5045878;28;20409;-86
2021/08/16 01:00:31;;;;;;;0.80;0.80;;;;;;;15.46;100.00;100063.41;5046841;28;20049;-85
2021/08/16 01:03:04;;;;;;;1.25;0.85;;;;;;;15.40;100.00;100091.34;5038365;28;20052;-85
2021/08/16 01:05:33;;;;;;;0.70;0.70;;;;;;;15.04;100.00;100034.97;5051076;28;20053;-86
2021/08/16 01:08:06;;;;;;;0.85;0.70;;;;;;;15.55;100.00;100033.22;5040370;28;20053;-87
2021/08/16 01:10:39;;;;;;;0.85;0.68;;;;;;;15.63;100.00;100017.84;5052489;28;20405;-86
2021/08/16 01:13:09;;;;;;;1.08;0.70;;;;;;;15.51;100.00;100015.00;5041114;28;20056;-85
2021/08/16 01:15:53;;;;;;;0.75;0.60;;;;;;;15.47;100.00;100015.66;5047620;28;20072;-85
2021/08/16 01:18:28;;;;;;;1.35;0.73;;;;;;;15.43;100.00;100017.44;5039363;28;20052;-86
2021/08/16 01:21:03;;;;;;;1.20;0.80;;;;;;;15.35;100.00;100025.72;5052827;28;20508;-87
2021/08/16 01:23:37;;;;;;;1.23;0.75;;;;;;;15.32;100.00;100040.88;5050541;28;20053;-86
2021/08/16 01:26:06;;;;;;;1.00;0.80;;;;;;;15.21;100.00;100018.50;5051041;28;20053;-86
2021/08/16 01:28:41;;;;;;;1.23;0.80;;;;;;;15.39;100.00;100023.94;5051002;28;20049;-87
2021/08/16 01:31:15;;;;;;;1.00;0.70;;;;;;;15.38;100.00;100003.13;5037254;28;20056;-87
2021/08/16 01:33:43;;;;;;;0.63;0.63;;;;;;;15.35;100.00;99990.88;5047883;28;20068;-86
2021/08/16 01:36:16;;;;;;;0.90;0.80;;;;;;;15.33;100.00;99987.66;5050888;28;20057;-86
2021/08/16 01:39:21;;;;;;;1.30;0.80;;;;;;;15.30;100.00;99996.53;5041773;28;20049;-86
2021/08/16 01:41:55;;;;;;;1.02;0.75;;;;;;;15.26;100.00;100010.09;5046729;28;20045;-86
2021/08/16 01:44:25;;;;;;;1.27;0.80;;;;;;;15.17;100.00;100014.81;5042020;28;20061;-86
2021/08/16 01:46:58;;;;;;;1.95;0.90;;;;;;;15.15;100.00;100014.34;5031103;28;20056;-85
2021/08/16 01:49:31;;;;;;;0.82;0.70;;;;;;;15.04;100.00;99999.34;5049698;28;20052;-87
2021/08/16 01:52:05;;;;;;;1.92;1.05;;;;;;;15.07;100.00;99998.72;5050420;28;20056;-86
2021/08/16 01:54:39;;;;;;;0.98;0.90;;;;;;;15.02;100.00;100001.63;5051012;28;20080;-87
2021/08/16 01:57:40;;;;;;;0.80;0.80;;;;;;;15.00;100.00;100001.13;5052197;28;20049;-86
2021/08/16 02:00:15;;;;;;;1.45;0.90;;;;;;;14.92;100.00;99994.56;5047651;28;20052;-86
2021/08/16 02:02:48;;;;;;;1.10;0.73;;;;;;;14.81;100.00;99988.63;5045947;28;20084;-86
2021/08/16 02:05:21;;;;;;;1.13;0.88;;;;;;;14.81;100.00;99977.66;5051141;28;20417;-85
2021/08/16 02:07:54;;;;;;;0.93;0.82;;;;;;;14.77;100.00;99973.97;5041191;28;20041;-86
2021/08/16 02:10:23;;;;;;;1.33;0.90;;;;;;;14.75;100.00;99985.25;5055873;28;20048;-86
2021/08/16 02:12:56;;;;;;;1.00;0.85;;;;;;;14.72;100.00;99976.88;5055477;28;20039;-85
2021/08/16 02:15:31;;;;;;;1.52;0.80;;;;;;;14.58;100.00;99975.09;5054510;28;20049;-86
2021/08/16 02:18:04;;;;;;;1.83;0.77;;;;;;;14.58;100.00;99977.03;5054358;28;20056;-87
2021/08/16 02:20:33;;;;;;;1.08;0.88;;;;;;;14.54;100.00;99976.88;5054262;28;20057;-86
2021/08/16 02:23:06;;;;;;;2.10;1.10;;;;;;;14.44;100.00;99977.19;5053713;28;20394;-86
2021/08/16 02:29:15;;;;;;;1.58;0.80;;;;;;;14.41;100.00;99986.06;5052246;28;20049;-86
2021/08/16 02:31:45;;;;;;;1.08;0.90;;;;;;;14.42;100.00;99993.16;5051560;28;20052;-86
2021/08/16 02:34:18;;;;;;;1.67;1.02;;;;;;;14.46;100.00;99994.91;5054086;28;20044;-86
2021/08/16 02:36:51;;;;;;;1.08;0.80;;;;;;;14.45;100.00;99990.56;5041430;28;20473;-86
2021/08/16 02:39:24;;;;;;;0.70;0.70;;;;;;;14.36;100.00;99984.31;5055676;28;20041;-85
2021/08/16 02:41:53;;;;;;;1.23;0.80;;;;;;;14.37;100.00;99972.19;5047473;28;20053;-85
2021/08/16 02:44:21;;;;;;;1.25;0.75;;;;;;;14.35;100.00;99979.13;5034786;28;20057;-86
2021/08/16 02:46:50;;;;;;;1.17;0.82;;;;;;;14.29;100.00;99982.03;5033932;28;20064;-85
2021/08/16 02:53:49;;;;;;;1.15;0.75;;;;;;;14.19;100.00;99965.13;5062075;28;20044;-85
2021/08/16 02:56:17;;;;;;;1.38;0.82;;;;;;;14.25;100.00;99966.56;5054004;28;20536;-85
2021/08/16 02:58:45;;;;;;;1.13;0.90;;;;;;;14.09;100.00;99956.09;5053614;28;20060;-86
2021/08/16 03:01:21;;;;;;;1.50;1.00;;;;;;;14.15;100.00;99975.91;5045917;28;20041;-88
2021/08/16 03:03:56;;;;;;;1.88;1.00;;;;;;;14.08;100.00;99959.16;5053877;28;20060;-87
2021/08/16 03:06:24;;;;;;;3.00;1.10;;;;;;;14.17;100.00;99967.38;5053411;28;20053;-88
2021/08/16 03:08:52;;;;;;;1.23;1.00;;;;;;;14.17;100.00;99964.63;5039841;28;20071;-87
2021/08/16 03:11:26;;;;;;;1.13;0.90;;;;;;;14.25;100.00;99974.78;5054313;28;20045;-87
2021/08/16 03:13:59;;;;;;;2.10;1.10;;;;;;;14.11;100.00;99964.00;5049824;28;20045;-87
2021/08/16 03:16:28;;;;;;;1.45;0.90;;;;;;;14.05;100.00;99955.13;5039620;28;20049;-87
2021/08/16 03:18:57;;;;;;;1.13;0.90;;;;;;;14.14;100.00;99960.63;5054526;28;20405;-87
2021/08/16 03:21:25;;;;;;;1.70;1.00;;;;;;;14.16;100.00;99952.09;5052199;28;20071;-87
2021/08/16 03:23:59;;;;;;;1.15;0.93;;;;;;;14.06;100.00;99945.03;5043829;28;20405;-87
2021/08/16 03:26:33;;;;;;;2.05;1.05;;;;;;;14.06;100.00;99954.03;5052755;28;20045;-88
2021/08/16 03:29:01;;;;;;;1.38;0.95;;;;;;;13.87;100.00;99920.69;5052342;28;20836;-87
2021/08/16 03:31:34;;;;;;;1.38;1.05;;;;;;;14.00;100.00;99944.34;5048508;28;20049;-87
2021/08/16 03:34:04;;;;;;;1.45;1.00;;;;;;;14.03;100.00;99937.44;5051765;28;20828;-87
2021/08/16 03:36:37;;;;;;;1.25;1.10;;;;;;;14.03;100.00;99941.00;5052721;28;20053;-87
2021/08/16 03:39:11;;;;;;;1.77;1.10;;;;;;;13.99;100.00;99940.03;5054294;28;20053;-87
2021/08/16 03:41:44;;;;;;;1.05;0.85;;;;;;;14.02;100.00;99935.84;5052490;28;20057;-87
2021/08/16 03:44:18;;;;;;;0.95;0.85;;;;;;;14.05;100.00;99930.50;5042102;28;20054;-87
2021/08/16 03:46:51;;;;;;;1.73;1.02;;;;;;;14.01;100.00;99913.13;5032655;28;20049;-87
2021/08/16 03:50:30;;;;;;;1.30;0.90;;;;;;;14.04;100.00;99920.69;5032765;28;20061;-87
2021/08/16 03:53:05;;;;;;;1.40;1.00;;;;;;;14.01;100.00;99917.81;5032495;28;20425;-87
2021/08/16 03:55:39;;;;;;;1.60;1.00;;;;;;;14.09;100.00;99922.47;5049171;28;20045;-87
2021/08/16 03:58:12;;;;;;;1.60;1.05;;;;;;;14.10;100.00;99910.41;5051229;28;20064;-87
2021/08/16 04:00:46;;;;;;;1.30;0.90;;;;;;;14.15;100.00;99906.72;5039534;28;20033;-87
2021/08/16 04:03:14;;;;;;;2.00;1.10;;;;;;;14.17;100.00;99885.28;5050565;28;20409;-87
2021/08/16 04:05:42;;;;;;;2.17;1.10;;;;;;;14.15;100.00;99888.34;5052357;28;20049;-87
2021/08/16 04:08:17;;;;;;;1.40;1.08;;;;;;;14.20;100.00;99888.19;5051955;28;20052;-87
2021/08/16 04:10:50;;;;;;;1.98;1.20;;;;;;;14.20;100.00;99888.19;5051506;28;20049;-87
2021/08/16 04:13:18;;;;;;;1.20;0.93;;;;;;;14.10;100.00;99883.84;5067679;28;20049;-87
2021/08/16 04:15:46;;;;;;;1.60;1.02;;;;;;;14.18;100.00;99887.69;5051640;28;20060;-88
2021/08/16 04:18:22;;;;;;;1.63;1.10;;;;;;;14.18;100.00;99876.75;5052137;28;20049;-87
2021/08/16 04:20:55;;;;;;;1.35;0.90;;;;;;;14.24;100.00;99877.41;5033786;28;20041;-87
2021/08/16 04:23:30;;;;;;;3.20;1.33;;;;;;;14.23;100.00;99871.09;5051677;28;20409;-87
2021/08/16 04:26:03;;;;;;;1.70;1.20;;;;;;;14.21;100.00;99858.88;5033439;28;20049;-86
2021/08/16 04:28:37;;;;;;;1.70;1.10;;;;;;;14.30;100.00;99870.63;5048717;28;20045;-87
2021/08/16 04:31:06;;;;;;;1.27;0.93;;;;;;;14.37;100.00;99856.44;5052949;28;20049;-87
2021/08/16 04:33:34;;;;;;;1.38;1.02;;;;;;;14.46;100.00;99857.25;5060408;28;20056;-87
2021/08/16 04:36:08;;;;;;;1.80;1.15;;;;;;;14.21;100.00;99826.03;5037464;28;20421;-86
2021/08/16 04:39:36;;;;;;;2.58;1.20;;;;;;;14.37;100.00;99859.97;5044908;28;20052;-86
2021/08/16 04:42:10;;;;;;;1.50;1.00;;;;;;;14.36;100.00;99857.56;5045883;28;20494;-87
2021/08/16 04:44:44;;;;;;;2.33;1.10;;;;;;;14.40;100.00;99862.09;5051354;28;21609;-87
2021/08/16 04:47:12;;;;;;;3.25;1.15;;;;;;;14.38;100.00;99855.31;5053201;28;20056;-87
2021/08/16 04:49:46;;;;;;;1.55;1.10;;;;;;;14.46;100.00;99858.03;5050014;28;20049;-87
2021/08/16 04:52:19;;;;;;;1.92;1.10;;;;;;;14.49;100.00;99858.53;5052445;28;20532;-88
2021/08/16 04:54:53;;;;;;;1.85;1.17;;;;;;;14.45;100.00;99852.88;5052978;28;20048;-87
2021/08/16 04:58:20;;;;;;;1.70;1.20;;;;;;;14.49;100.00;99864.78;5042746;28;20064;-85
2021/08/16 05:00:54;;;;;;;2.80;1.30;;;;;;;14.56;100.00;99856.09;5037637;28;20049;-86
2021/08/16 05:03:27;;;;;;;1.42;1.00;;;;;;;14.47;100.00;99850.59;5042594;28;20045;-86
2021/08/16 05:06:06;;;;;;;2.05;1.30;;;;;;;14.55;100.00;99859.94;5051161;28;20406;-86
2021/08/16 05:08:40;;;;;;;2.72;1.20;;;;;;;14.68;100.00;99850.75;5052254;28;20045;-87
2021/08/16 05:11:13;;;;;;;2.95;1.42;;;;;;;14.61;100.00;99853.97;5047234;28;20060;-87
2021/08/16 05:13:46;;;;;;;1.90;1.40;;;;;;;14.72;100.00;99853.63;5043071;28;20060;-87
2021/08/16 05:16:23;;;;;;;2.15;1.30;;;;;;;14.70;100.00;99864.13;5047022;28;20053;-88
2021/08/16 05:18:57;;;;;;;2.13;1.50;;;;;;;14.81;100.00;99853.59;5052782;28;20063;-87
2021/08/16 05:21:32;;;;;;;2.78;1.58;;;;;;;14.79;100.00;99853.94;5051918;28;20060;-88
2021/08/16 05:24:05;;;;;;;3.53;1.52;;;;;;;14.89;100.00;99858.25;5045818;28;20393;-87
2021/08/16 05:26:34;;;;;;;2.95;1.50;;;;;;;14.96;100.00;99864.00;5052596;28;20496;-87
2021/08/16 05:29:07;;;;;;;3.30;1.60;;;;;;;14.97;100.00;99857.41;5043579;28;20049;-87
2021/08/16 05:32:40;;;;;;;3.17;1.70;;;;;;;15.16;100.00;99853.44;5050505;28;20049;-87
2021/08/16 05:35:11;;;;;;;2.60;1.40;;;;;;;15.16;100.00;99853.44;5031276;28;20406;-87
2021/08/16 05:37:44;;;;;;;2.92;1.63;;;;;;;14.95;100.00;99824.84;5033173;28;20052;-87
2021/08/16 05:40:18;;;;;;;3.60;1.90;;;;;;;15.18;100.00;99851.97;5050958;28;20052;-87
2021/08/16 05:42:47;;;;;;;3.65;1.80;;;;;;;15.08;100.00;99850.41;5054586;28;20056;-87
2021/08/16 05:45:20;;;;;;;3.42;1.73;;;;;;;15.28;100.00;99857.06;5054853;28;20044;-87
2021/08/16 05:48:21;;;;;;;3.97;1.60;;;;;;;15.19;100.00;99852.75;5054765;28;20417;-86
2021/08/16 05:50:55;;;;;;;2.83;1.80;;;;;;;15.23;100.00;99854.53;5052995;28;20053;-86
2021/08/16 05:53:29;;;;;;;3.83;1.88;;;;;;;15.02;100.00;99834.50;5053850;28;20045;-85
2021/08/16 05:56:02;;;;;;;3.47;1.85;;;;;;;15.19;100.00;99859.06;5053985;28;20056;-86
2021/08/16 05:58:35;;;;;;;2.22;1.85;;;;;;;15.23;100.00;99856.44;5054130;28;20045;-86
2021/08/16 06:02:04;;;;;;;2.28;1.75;;;;;;;15.26;100.00;99850.28;5045297;28;20064;-86
2021/08/16 06:04:32;;;;;;;3.30;2.05;;;;;;;15.19;100.00;99855.50;5052651;28;20409;-87
2021/08/16 06:07:07;;;;;;;3.30;1.80;;;;;;;15.24;100.00;99847.91;5052843;28;20053;-86
2021/08/16 06:10:13;;;;;;;4.05;2.03;;;;;;;15.19;100.00;99847.28;5055982;28;20053;-86
2021/08/16 06:12:46;;;;;;;4.13;2.00;;;;;;;15.25;100.00;99840.50;5050753;28;20056;-88
2021/08/16 06:15:22;;;;;;;3.15;1.80;;;;;;;15.08;100.00;99814.78;5049456;28;20041;-88
2021/08/16 06:17:50;;;;;;;2.80;1.83;;;;;;;15.39;100.00;99843.78;5052179;28;20405;-88
2021/08/16 06:20:23;;;;;;;3.75;1.80;;;;;;;15.34;100.00;99833.00;5054587;28;20409;-89
2021/08/16 06:22:58;;;;;;;3.75;1.85;;;;;;;15.42;100.00;99823.13;5035980;28;20064;-88
2021/08/16 06:25:44;;;;;;;3.45;1.70;;;;;;;15.61;100.00;99847.34;5048860;28;20045;-89
2021/08/16 06:28:12;;;;;;;3.60;2.20;;;;;;;15.50;100.00;99848.88;5051767;28;20056;-89
2021/08/16 06:31:20;;;;;;;4.10;2.22;;;;;;;15.63;100.00;99848.63;5048398;28;20041;-88
2021/08/16 06:33:49;;;;;;;4.40;1.80;;;;;;;15.49;100.00;99839.84;5051155;28;20064;-89
2021/08/16 06:36:24;;;;;;;3.65;1.90;;;;;;;15.38;100.00;99831.19;5036794;28;20049;-89
2021/08/16 06:38:55;;;;;;;2.92;1.80;;;;;;;15.43;100.00;99841.19;5030017;28;20441;-90
2021/08/16 06:41:32;;;;;;;2.80;1.80;;;;;;;15.48;100.00;99844.53;5031831;28;20520;-88
2021/08/16 06:44:01;;;;;;;3.13;1.80;;;;;;;15.40;100.00;99844.59;5029989;28;20064;-89
2021/08/16 06:46:29;;;;;;;3.33;1.70;;;;;;;15.40;100.00;99848.13;5027333;28;20072;-89
2021/08/16 06:48:58;;;;;;;2.72;1.90;;;;;;;15.46;100.00;99844.03;5030165;28;20050;-88
2021/08/16 06:51:26;;;;;;;3.85;1.90;;;;;;;15.54;100.00;99839.63;5030760;28;20048;-88
2021/08/16 06:54:01;;;;;;;3.88;1.63;;;;;;;15.67;100.00;99846.00;5023588;28;20056;-89
2021/08/16 06:56:29;;;;;;;3.28;1.80;;;;;;;15.68;100.00;99844.84;5025226;28;20057;-88
2021/08/16 06:59:03;;;;;;;3.53;1.60;;;;;;;15.80;100.00;99836.72;5024273;28;20057;-88
2021/08/16 07:01:31;;;;;;;2.80;1.70;;;;;;;15.79;99.58;99846.09;5029190;28;20057;-90
2021/08/16 07:03:59;;;;;;;3.88;1.83;;;;;;;15.85;100.00;99852.16;5027901;28;20060;-89
2021/08/16 07:06:33;;;;;;;5.03;1.90;;;;;;;15.98;100.00;99848.34;5027247;28;20079;-89
2021/08/16 07:09:07;;;;;;;2.80;1.77;;;;;;;15.87;99.97;99858.13;5032120;28;20063;-90
2021/08/16 07:15:10;;;;;;;3.72;1.70;;;;;;;15.98;99.85;99859.31;5030124;28;20057;-89
2021/08/16 07:17:44;;;;;;;4.18;2.28;;;;;;;16.14;98.56;99856.78;5030243;28;20042;-90
2021/08/16 07:20:12;;;;;;;3.22;1.65;;;;;;;16.07;100.00;99856.50;5030961;28;20068;-89
2021/08/16 07:22:46;;;;;;;3.08;1.40;;;;;;;16.22;98.17;99849.56;5023728;28;20057;-88
2021/08/16 07:25:20;;;;;;;3.47;1.67;;;;;;;16.10;97.37;99850.34;5029236;28;20045;-89
2021/08/16 07:27:53;;;;;;;3.00;2.17;;;;;;;16.25;98.58;99850.84;5032713;28;20056;-86
2021/08/16 07:30:27;;;;;;;4.13;1.52;;;;;;;16.19;96.29;99847.50;5027021;28;20528;-86
2021/08/16 07:32:59;;;;;;;3.20;1.50;;;;;;;16.47;97.67;99850.47;5035527;28;20061;-90
2021/08/16 07:35:28;;;;;;;2.65;1.33;;;;;;;16.46;95.61;99850.78;5025979;28;20508;-91
2021/08/16 07:37:57;;;;;;;2.15;1.30;;;;;;;16.64;96.63;99854.94;4986855;28;1152405;-90
2021/08/16 07:40:26;;;;;;;3.90;1.55;;;;;;;16.42;97.34;99849.84;5029492;28;20051;-91
2021/08/16 07:42:59;;;;;;;3.85;1.77;;;;;;;16.36;98.85;99864.94;5026880;28;20540;-90
2021/08/16 07:45:28;;;;;;;3.90;1.67;;;;;;;16.34;97.59;99862.53;5025792;28;21407;-90
2021/08/16 07:47:59;;;;;;;2.90;1.42;;;;;;;16.16;96.32;99856.44;5030030;28;20068;-89
2021/08/16 07:50:38;;;;;;;3.95;1.40;;;;;;;16.22;94.98;99868.78;5022427;28;20056;-90
2021/08/16 07:53:28;;;;;;;3.95;1.60;;;;;;;16.11;97.75;99867.59;5024968;28;20057;-91
2021/08/16 07:56:05;;;;;;;2.97;1.27;;;;;;;16.16;97.16;99864.66;5025813;28;20052;-90
2021/08/16 07:58:41;;;;;;;2.10;1.20;;;;;;;16.17;97.83;99858.00;5030901;28;20061;-88
2021/08/16 08:01:13;;;;;;;3.88;1.83;;;;;;;16.26;96.33;99861.47;5024798;28;20053;-87
2021/08/16 08:03:42;;;;;;;5.30;2.90;;;;;;;16.27;95.05;99846.63;5030592;28;20049;-90
2021/08/16 08:06:12;;;;;;;2.85;1.50;;;;;;;15.98;97.84;99831.88;5028969;28;20053;-89
2021/08/16 08:08:49;;;;;;;3.50;1.55;;;;;;;16.17;96.57;99862.72;5022620;28;20089;-88
2021/08/16 08:11:27;;;;;;;2.63;1.30;;;;;;;16.42;94.12;99856.16;5022510;28;20061;-89
2021/08/16 08:14:00;;;;;;;2.90;1.40;;;;;;;16.44;93.53;99859.34;5029292;28;20049;-89
2021/08/16 08:16:34;;;;;;;3.20;1.40;;;;;;;16.48;95.97;99873.22;5025418;28;20052;-90
2021/08/16 08:19:02;;;;;;;3.08;1.30;;;;;;;16.49;94.90;99864.66;5048170;28;20065;-91
2021/08/16 08:21:35;;;;;;;2.50;1.25;;;;;;;16.37;94.81;99850.88;5032036;28;20053;-91
2021/08/16 08:24:09;;;;;;;3.17;1.70;;;;;;;16.39;95.64;99853.28;5024653;28;20060;-89
2021/08/16 08:26:44;;;;;;;1.95;1.30;;;;;;;16.29;96.13;99847.06;5023078;28;20049;-88
2021/08/16 08:29:17;;;;;;;2.75;1.40;;;;;;;16.39;95.92;99858.78;5023301;28;20057;-88
2021/08/16 08:31:50;;;;;;;3.20;1.40;;;;;;;16.18;93.39;99823.94;5028460;28;20049;-88
2021/08/16 08:34:18;;;;;;;4.55;1.40;;;;;;;16.40;93.27;99830.19;5027802;28;20048;-89
2021/08/16 08:37:10;;;;;;;3.25;1.35;;;;;;;16.77;92.58;99852.22;5025031;28;20057;-88
2021/08/16 08:39:41;;;;;;;2.20;1.23;;;;;;;16.73;93.54;99849.34;5025093;28;20057;-89
2021/08/16 08:42:16;;;;;;;2.85;1.30;;;;;;;16.76;92.31;99854.16;5028154;28;20041;-89
2021/08/16 08:44:45;;;;;;;2.28;1.30;;;;;;;16.72;91.75;99852.44;5027930;28;20049;-88
2021/08/16 08:47:14;;;;;;;4.10;1.52;;;;;;;17.01;94.15;99856.94;5034505;28;20045;-88
2021/08/16 08:49:42;;;;;;;2.80;1.30;;;;;;;16.87;92.34;99807.00;5025261;28;20059;-89
2021/08/16 08:52:24;;;;;;;2.33;1.30;;;;;;;17.14;91.90;99860.50;5027605;28;20064;-88
2021/08/16 08:54:57;;;;;;;1.77;1.08;;;;;;;17.08;90.71;99848.94;5021724;28;20069;-89
2021/08/16 08:57:31;;;;;;;2.47;1.15;;;;;;;17.00;91.91;99844.38;5035178;28;20068;-89
2021/08/16 09:00:03;;;;;;;2.90;1.50;;;;;;;17.06;93.09;99855.94;5048608;28;20074;-88
2021/08/16 09:02:40;;;;;;;1.85;1.10;;;;;;;17.03;91.18;99832.69;5032394;28;20080;-87
2021/08/16 09:05:17;;;;;;;2.45;1.20;;;;;;;17.00;88.53;99855.34;5028952;28;20060;-90
2021/08/16 09:07:50;;;;;;;2.75;1.10;;;;;;;17.11;90.50;99850.19;5025664;28;20481;-90
2021/08/16 09:10:18;;;;;;;1.58;0.82;;;;;;;17.05;88.31;99846.88;5023331;28;20416;-89
2021/08/16 09:12:48;;;;;;;2.17;1.00;;;;;;;17.24;89.72;99862.00;5019911;28;20091;-89
2021/08/16 09:15:23;;;;;;;1.65;1.08;;;;;;;17.12;88.41;99851.78;5020736;28;21038;-88
2021/08/16 09:17:54;;;;;;;2.85;1.13;;;;;;;16.78;89.27;99824.41;5021405;28;20052;-88
2021/08/16 09:20:27;;;;;;;2.88;1.00;;;;;;;16.72;87.56;99844.19;5026791;28;20049;-87
2021/08/16 09:22:58;;;;;;;2.78;1.10;;;;;;;16.73;88.32;99860.34;5023615;28;20061;-89
2021/08/16 09:25:35;;;;;;;2.05;0.90;;;;;;;16.87;90.61;99845.47;5030396;28;20053;-88
2021/08/16 09:28:34;;;;;;;2.40;0.90;;;;;;;17.06;90.86;99853.19;5024836;28;20064;-89
2021/08/16 09:31:13;;;;;;;1.67;0.95;;;;;;;17.28;90.96;99846.41;5020611;28;20056;-88
2021/08/16 09:33:54;;;;;;;2.72;0.82;;;;;;;17.34;86.59;99834.00;5024664;28;21384;-89
2021/08/16 09:36:35;;;;;;;2.92;1.10;;;;;;;17.43;85.29;99837.44;5023738;28;20061;-90
2021/08/16 09:39:18;;;;;;;2.75;1.00;;;;;;;17.29;86.74;99829.56;5026079;28;20057;-87
2021/08/16 09:42:05;;;;;;;1.00;0.70;;;;;;;17.25;87.89;99842.41;5027292;28;20056;-90
2021/08/16 09:44:49;;;;;;;2.55;1.00;;;;;;;17.07;87.85;99841.84;5023954;28;20053;-88
2021/08/16 09:47:18;;;;;;;2.03;0.90;;;;;;;17.29;87.77;99843.31;5027726;28;20049;-91
2021/08/16 09:50:01;;;;;;;2.05;0.90;;;;;;;17.11;88.74;99840.00;5028072;28;20065;-89
2021/08/16 09:52:35;;;;;;;2.20;0.90;;;;;;;16.87;90.00;99831.72;5027509;28;20067;-87
2021/08/16 09:55:10;;;;;;;2.03;0.90;;;;;;;16.76;90.25;99845.09;5032583;28;21284;-88
2021/08/16 09:57:43;;;;;;;2.20;1.00;;;;;;;16.40;95.32;99854.91;5023770;28;20057;-89
2021/08/16 10:00:13;;;;;;;2.90;1.15;;;;;;;16.14;98.70;99862.25;5022379;28;20061;-89
2021/08/16 10:02:42;;;;;;;1.70;0.90;;;;;;;15.80;97.97;99860.63;5032086;28;20056;-88
2021/08/16 10:05:19;;;;;;;1.52;1.13;;;;;;;15.61;100.00;99855.56;5026075;28;20061;-89
2021/08/16 10:07:52;;;;;;;1.55;1.05;;;;;;;15.53;100.00;99849.00;5025104;28;20509;-88
2021/08/16 10:10:30;;;;;;;2.00;1.10;;;;;;;15.41;100.00;99833.28;5036866;28;20060;-88
2021/08/16 10:13:11;;;;;;;3.72;1.50;;;;;;;15.47;100.00;99853.88;5024393;28;20069;-88
2021/08/16 10:15:48;;;;;;;2.15;1.40;;;;;;;15.43;100.00;99843.91;5036176;28;20064;-88
2021/08/16 10:18:25;;;;;;;2.00;1.10;;;;;;;15.41;100.00;99852.47;5026940;28;20064;-89
2021/08/16 10:20:53;;;;;;;2.60;1.52;;;;;;;15.56;100.00;99855.75;5026254;28;20049;-87
2021/08/16 10:23:24;;;;;;;4.22;1.60;;;;;;;15.63;100.00;99850.53;5029187;28;20065;-87
2021/08/16 10:25:58;;;;;;;3.15;1.63;;;;;;;15.38;100.00;99822.19;5028069;28;20135;-86
2021/08/16 10:28:29;;;;;;;2.83;1.50;;;;;;;15.54;100.00;99856.09;5028747;28;20720;-87
2021/08/16 10:31:04;;;;;;;2.58;1.55;;;;;;;15.52;100.00;99858.34;5027155;28;20072;-88
2021/08/16 10:33:45;;;;;;;2.50;1.60;;;;;;;15.42;100.00;99850.53;4999467;28;20057;-87
2021/08/16 10:36:20;;;;;;;3.20;1.38;;;;;;;15.47;100.00;99858.56;5027877;28;20085;-87
2021/08/16 10:38:55;;;;;;;2.03;1.30;;;;;;;15.42;100.00;99866.97;5026432;28;20080;-87
2021/08/16 10:41:31;;;;;;;2.83;1.50;;;;;;;15.34;100.00;99851.38;5025956;28;20068;-87
2021/08/16 10:44:11;;;;;;;2.25;1.40;;;;;;;15.23;100.00;99837.25;5027449;28;20068;-88
2021/08/16 10:47:31;;;;;;;2.33;1.38;;;;;;;15.37;100.00;99854.28;5028064;28;20068;-87
2021/08/16 10:50:08;;;;;;;3.08;1.42;;;;;;;15.20;100.00;99848.91;5029671;28;20057;-87
2021/08/16 10:52:38;;;;;;;3.15;1.50;;;;;;;15.14;100.00;99843.59;5023215;28;20552;-88
2021/08/16 10:55:14;;;;;;;2.33;1.50;;;;;;;15.04;100.00;99856.88;5025120;28;20057;-86
2021/08/16 10:57:47;;;;;;;3.67;1.40;;;;;;;15.07;100.00;99864.44;5029463;28;20046;-85
2021/08/16 11:00:17;;;;;;;3.50;1.60;;;;;;;14.99;100.00;99863.34;5026795;28;20064;-86
2021/08/16 11:02:54;;;;;;;4.95;1.80;;;;;;;14.90;100.00;99846.97;5021850;28;20072;-87
2021/08/16 11:06:14;;;;;;;2.88;1.50;;;;;;;15.09;100.00;99878.59;5029365;28;20486;-87
2021/08/16 11:08:48;;;;;;;2.22;1.08;;;;;;;14.97;100.00;99871.09;5024968;28;20148;-87
2021/08/16 11:11:17;;;;;;;1.48;0.98;;;;;;;15.01;100.00;99880.28;5026253;28;20065;-86
2021/08/16 11:13:50;;;;;;;0.90;0.70;;;;;;;14.83;100.00;99873.25;5022267;28;20496;-89
2021/08/16 11:16:18;;;;;;;1.88;1.10;;;;;;;14.80;100.00;99888.41;5021933;28;20068;-90
2021/08/16 11:18:55;;;;;;;2.47;0.90;;;;;;;14.57;100.00;99853.00;5023378;28;20709;-86
2021/08/16 11:21:36;;;;;;;2.05;0.90;;;;;;;14.77;100.00;99872.63;5021845;28;20064;-85
2021/08/16 11:24:15;;;;;;;3.78;1.00;;;;;;;14.85;100.00;99876.47;5034312;28;20056;-86
2021/08/16 11:26:48;;;;;;;1.58;1.00;;;;;;;14.78;100.00;99875.03;5019181;28;20752;-86
2021/08/16 11:29:23;;;;;;;1.50;1.10;;;;;;;14.89;100.00;99869.22;5022959;28;20037;-87
2021/08/16 11:32:05;;;;;;;1.65;1.02;;;;;;;14.85;100.00;99866.31;5024636;28;20781;-87
2021/08/16 11:34:47;;;;;;;3.45;1.73;;;;;;;15.04;100.00;99874.13;4993664;28;20049;-87
2021/08/16 11:37:27;;;;;;;4.82;3.30;;;;;;;14.99;100.00;99879.78;5025032;28;20525;-86
2021/08/16 11:40:04;;;;;;;2.63;0.90;;;;;;;15.03;100.00;99879.94;5019483;28;21679;-86
2021/08/16 11:42:39;;;;;;;1.00;0.90;;;;;;;15.03;100.00;99888.94;5022601;28;20056;-86
2021/08/16 11:45:18;;;;;;;1.33;0.80;;;;;;;15.09;100.00;99887.66;5027382;28;20304;-86
2021/08/16 11:47:55;;;;;;;1.10;0.90;;;;;;;15.05;100.00;99886.69;5022398;28;20037;-86
2021/08/16 11:50:29;;;;;;;1.10;0.80;;;;;;;14.91;100.00;99858.72;5023276;28;20052;-86
2021/08/16 11:53:02;;;;;;;1.30;0.90;;;;;;;14.89;100.00;99872.75;5019111;28;20065;-85
2021/08/16 11:55:37;;;;;;;0.85;0.85;;;;;;;15.10;100.00;99877.47;5022240;28;20901;-87
2021/08/16 11:58:10;;;;;;;1.67;0.90;;;;;;;15.02;100.00;99868.16;5016320;28;20144;-83
2021/08/16 12:00:42;;;;;;;1.85;0.80;;;;;;;15.14;100.00;99883.91;5016766;28;20057;-85
2021/08/16 12:03:16;;;;;;;;;;;;;;;14.79;100.00;99893.09;5018484;28;20565;-85
2021/08/16 12:05:49;;;;;;;0.80;0.80;;;;;;;14.81;100.00;99881.00;5024164;28;19936;-86
2021/08/16 12:08:20;;;;;;;0.77;0.63;;;;;;;14.73;100.00;99883.41;5021881;28;20065;-85
2021/08/16 12:10:50;;;;;;;0.68;0.63;;;;;;;14.65;100.00;99888.94;5019567;28;20053;-85
2021/08/16 12:13:25;;;;;;;2.42;1.35;;;;;;;14.86;100.00;99924.63;5026450;28;20465;-87
2021/08/16 12:16:01;;;;;;;0.93;0.52;;;;;;;14.46;100.00;99914.72;5028791;28;20065;-87